sensor_id;sensor_type;location;lat;lon;timestamp;P1;durP1;ratioP1;P2;durP2;ratioP2
2860;SDS011;1438;50.922;6.704;2023-04-25T00:00:21;10.23;;;4.70;;
2860;SDS011;1438;50.922;6.704;2023-04-25T00:02:47;11.05;;;5.05;;
2860;SDS011;1438;50.922;6.704;2023-04-25T00:05:13;13.63;;;5.70;;
2860;SDS011;1438;50.922;6.704;2023-04-25T00:07:41;17.23;;;7.13;;
2860;SDS011;1438;50.922;6.704;2023-04-25T00:10:08;10.70;;;5.60;;
2860;SDS011;1438;50.922;6.704;2023-04-25T00:12:34;12.02;;;5.63;;
2860;SDS011;1438;50.922;6.704;2023-04-25T00:15:01;13.50;;;6.97;;
2860;SDS011;1438;50.922;6.704;2023-04-25T00:17:27;12.68;;;5.63;;
2860;SDS011;1438;50.922;6.704;2023-04-25T00:19:53;9.95;;;5.53;;
2860;SDS011;1438;50.922;6.704;2023-04-25T00:22:19;8.15;;;6.07;;
2860;SDS011;1438;50.922;6.704;2023-04-25T00:24:45;9.15;;;5.18;;
2860;SDS011;1438;50.922;6.704;2023-04-25T00:27:11;13.07;;;6.97;;
2860;SDS011;1438;50.922;6.704;2023-04-25T00:29:37;8.63;;;4.43;;
2860;SDS011;1438;50.922;6.704;2023-04-25T00:32:03;12.38;;;5.75;;
2860;SDS011;1438;50.922;6.704;2023-04-25T00:34:29;13.88;;;6.13;;
2860;SDS011;1438;50.922;6.704;2023-04-25T00:36:55;12.20;;;6.40;;
2860;SDS011;1438;50.922;6.704;2023-04-25T00:39:22;11.88;;;4.82;;
2860;SDS011;1438;50.922;6.704;2023-04-25T00:41:48;13.82;;;5.63;;
2860;SDS011;1438;50.922;6.704;2023-04-25T00:44:18;10.40;;;5.20;;
2860;SDS011;1438;50.922;6.704;2023-04-25T00:46:44;15.15;;;6.53;;
2860;SDS011;1438;50.922;6.704;2023-04-25T00:49:11;13.60;;;6.25;;
2860;SDS011;1438;50.922;6.704;2023-04-25T00:51:40;10.50;;;6.38;;
2860;SDS011;1438;50.922;6.704;2023-04-25T00:54:06;11.85;;;6.40;;
2860;SDS011;1438;50.922;6.704;2023-04-25T00:56:32;12.20;;;5.65;;
2860;SDS011;1438;50.922;6.704;2023-04-25T00:58:58;14.23;;;5.85;;
2860;SDS011;1438;50.922;6.704;2023-04-25T01:01:25;15.63;;;5.72;;
2860;SDS011;1438;50.922;6.704;2023-04-25T01:03:51;12.00;;;6.18;;
2860;SDS011;1438;50.922;6.704;2023-04-25T01:06:19;17.77;;;6.68;;
2860;SDS011;1438;50.922;6.704;2023-04-25T01:08:45;13.68;;;6.25;;
2860;SDS011;1438;50.922;6.704;2023-04-25T01:11:11;11.00;;;6.20;;
2860;SDS011;1438;50.922;6.704;2023-04-25T01:13:37;12.48;;;5.45;;
2860;SDS011;1438;50.922;6.704;2023-04-25T01:16:04;20.92;;;7.45;;
2860;SDS011;1438;50.922;6.704;2023-04-25T01:18:30;19.88;;;7.15;;
2860;SDS011;1438;50.922;6.704;2023-04-25T01:20:56;15.70;;;6.57;;
2860;SDS011;1438;50.922;6.704;2023-04-25T01:23:24;13.18;;;5.60;;
2860;SDS011;1438;50.922;6.704;2023-04-25T01:25:50;14.98;;;5.18;;
2860;SDS011;1438;50.922;6.704;2023-04-25T01:28:16;11.48;;;5.95;;
2860;SDS011;1438;50.922;6.704;2023-04-25T01:30:43;19.25;;;6.30;;
2860;SDS011;1438;50.922;6.704;2023-04-25T01:33:09;14.05;;;5.65;;
2860;SDS011;1438;50.922;6.704;2023-04-25T01:35:35;20.10;;;6.38;;
2860;SDS011;1438;50.922;6.704;2023-04-25T01:38:01;15.00;;;6.05;;
2860;SDS011;1438;50.922;6.704;2023-04-25T01:40:27;17.52;;;6.30;;
2860;SDS011;1438;50.922;6.704;2023-04-25T01:42:54;11.27;;;6.10;;
2860;SDS011;1438;50.922;6.704;2023-04-25T01:45:20;23.05;;;8.48;;
2860;SDS011;1438;50.922;6.704;2023-04-25T01:47:46;16.50;;;6.75;;
2860;SDS011;1438;50.922;6.704;2023-04-25T01:50:14;16.60;;;6.72;;
2860;SDS011;1438;50.922;6.704;2023-04-25T01:52:41;22.65;;;6.32;;
2860;SDS011;1438;50.922;6.704;2023-04-25T01:55:07;17.42;;;8.35;;
2860;SDS011;1438;50.922;6.704;2023-04-25T01:57:33;19.80;;;7.10;;
2860;SDS011;1438;50.922;6.704;2023-04-25T02:00:01;13.82;;;7.15;;
2860;SDS011;1438;50.922;6.704;2023-04-25T02:02:29;28.02;;;6.88;;
2860;SDS011;1438;50.922;6.704;2023-04-25T02:04:55;18.25;;;8.98;;
2860;SDS011;1438;50.922;6.704;2023-04-25T02:07:21;22.92;;;9.55;;
2860;SDS011;1438;50.922;6.704;2023-04-25T02:09:47;19.35;;;6.95;;
2860;SDS011;1438;50.922;6.704;2023-04-25T02:12:13;16.15;;;8.05;;
2860;SDS011;1438;50.922;6.704;2023-04-25T02:14:39;20.55;;;9.23;;
2860;SDS011;1438;50.922;6.704;2023-04-25T02:17:05;15.50;;;6.70;;
2860;SDS011;1438;50.922;6.704;2023-04-25T02:19:31;13.93;;;6.85;;
2860;SDS011;1438;50.922;6.704;2023-04-25T02:21:57;17.25;;;7.30;;
2860;SDS011;1438;50.922;6.704;2023-04-25T02:24:24;14.88;;;6.70;;
2860;SDS011;1438;50.922;6.704;2023-04-25T02:26:50;16.30;;;6.97;;
2860;SDS011;1438;50.922;6.704;2023-04-25T02:29:17;21.80;;;7.43;;
2860;SDS011;1438;50.922;6.704;2023-04-25T02:31:43;23.52;;;6.97;;
2860;SDS011;1438;50.922;6.704;2023-04-25T02:34:09;17.75;;;6.75;;
2860;SDS011;1438;50.922;6.704;2023-04-25T02:36:35;13.30;;;6.47;;
2860;SDS011;1438;50.922;6.704;2023-04-25T02:39:01;19.40;;;7.03;;
2860;SDS011;1438;50.922;6.704;2023-04-25T02:41:28;18.38;;;6.78;;
2860;SDS011;1438;50.922;6.704;2023-04-25T02:43:54;10.93;;;6.40;;
2860;SDS011;1438;50.922;6.704;2023-04-25T02:46:20;17.10;;;5.60;;
2860;SDS011;1438;50.922;6.704;2023-04-25T02:48:46;13.20;;;6.10;;
2860;SDS011;1438;50.922;6.704;2023-04-25T02:51:12;15.30;;;6.60;;
2860;SDS011;1438;50.922;6.704;2023-04-25T02:53:38;10.13;;;5.78;;
2860;SDS011;1438;50.922;6.704;2023-04-25T02:56:04;13.77;;;6.28;;
2860;SDS011;1438;50.922;6.704;2023-04-25T02:58:31;15.60;;;5.90;;
2860;SDS011;1438;50.922;6.704;2023-04-25T03:00:57;15.40;;;7.97;;
2860;SDS011;1438;50.922;6.704;2023-04-25T03:03:23;13.05;;;6.07;;
2860;SDS011;1438;50.922;6.704;2023-04-25T03:05:49;19.85;;;7.82;;
2860;SDS011;1438;50.922;6.704;2023-04-25T03:08:16;25.00;;;7.07;;
2860;SDS011;1438;50.922;6.704;2023-04-25T03:10:42;18.10;;;7.10;;
2860;SDS011;1438;50.922;6.704;2023-04-25T03:13:08;15.85;;;6.75;;
2860;SDS011;1438;50.922;6.704;2023-04-25T03:15:34;24.05;;;7.65;;
2860;SDS011;1438;50.922;6.704;2023-04-25T03:18:00;16.33;;;7.00;;
2860;SDS011;1438;50.922;6.704;2023-04-25T03:20:26;14.70;;;6.55;;
2860;SDS011;1438;50.922;6.704;2023-04-25T03:22:52;20.02;;;7.28;;
2860;SDS011;1438;50.922;6.704;2023-04-25T03:25:19;16.80;;;7.15;;
2860;SDS011;1438;50.922;6.704;2023-04-25T03:27:45;19.25;;;8.57;;
2860;SDS011;1438;50.922;6.704;2023-04-25T03:30:11;17.15;;;6.78;;
2860;SDS011;1438;50.922;6.704;2023-04-25T03:32:37;14.93;;;6.10;;
2860;SDS011;1438;50.922;6.704;2023-04-25T03:35:03;21.85;;;7.72;;
2860;SDS011;1438;50.922;6.704;2023-04-25T03:37:30;19.08;;;7.75;;
2860;SDS011;1438;50.922;6.704;2023-04-25T03:39:56;14.68;;;7.68;;
2860;SDS011;1438;50.922;6.704;2023-04-25T03:42:22;13.07;;;7.80;;
2860;SDS011;1438;50.922;6.704;2023-04-25T03:44:51;16.92;;;6.93;;
2860;SDS011;1438;50.922;6.704;2023-04-25T03:47:17;16.20;;;8.10;;
2860;SDS011;1438;50.922;6.704;2023-04-25T03:49:43;20.65;;;8.27;;
2860;SDS011;1438;50.922;6.704;2023-04-25T03:52:10;19.55;;;7.38;;
2860;SDS011;1438;50.922;6.704;2023-04-25T03:54:36;15.32;;;7.40;;
2860;SDS011;1438;50.922;6.704;2023-04-25T03:57:02;16.38;;;7.60;;
2860;SDS011;1438;50.922;6.704;2023-04-25T03:59:28;16.88;;;8.27;;
2860;SDS011;1438;50.922;6.704;2023-04-25T04:01:54;20.20;;;8.20;;
2860;SDS011;1438;50.922;6.704;2023-04-25T04:04:20;17.92;;;7.32;;
2860;SDS011;1438;50.922;6.704;2023-04-25T04:06:46;15.85;;;6.95;;
2860;SDS011;1438;50.922;6.704;2023-04-25T04:09:12;16.52;;;8.35;;
2860;SDS011;1438;50.922;6.704;2023-04-25T04:11:38;22.15;;;8.27;;
2860;SDS011;1438;50.922;6.704;2023-04-25T04:14:05;25.38;;;10.02;;
2860;SDS011;1438;50.922;6.704;2023-04-25T04:16:31;24.52;;;9.23;;
2860;SDS011;1438;50.922;6.704;2023-04-25T04:18:57;16.95;;;9.05;;
2860;SDS011;1438;50.922;6.704;2023-04-25T04:21:23;23.77;;;8.52;;
2860;SDS011;1438;50.922;6.704;2023-04-25T04:23:49;16.15;;;8.77;;
2860;SDS011;1438;50.922;6.704;2023-04-25T04:26:15;12.10;;;8.38;;
2860;SDS011;1438;50.922;6.704;2023-04-25T04:28:41;27.10;;;9.48;;
2860;SDS011;1438;50.922;6.704;2023-04-25T04:31:08;14.75;;;8.27;;
2860;SDS011;1438;50.922;6.704;2023-04-25T04:33:35;29.38;;;9.25;;
2860;SDS011;1438;50.922;6.704;2023-04-25T04:36:01;14.10;;;7.57;;
2860;SDS011;1438;50.922;6.704;2023-04-25T04:38:28;17.95;;;7.47;;
2860;SDS011;1438;50.922;6.704;2023-04-25T04:40:54;15.27;;;8.70;;
2860;SDS011;1438;50.922;6.704;2023-04-25T04:43:21;26.13;;;8.05;;
2860;SDS011;1438;50.922;6.704;2023-04-25T04:45:48;17.88;;;7.28;;
2860;SDS011;1438;50.922;6.704;2023-04-25T04:48:15;19.00;;;7.90;;
2860;SDS011;1438;50.922;6.704;2023-04-25T04:50:42;21.42;;;7.97;;
2860;SDS011;1438;50.922;6.704;2023-04-25T04:53:10;16.73;;;6.70;;
2860;SDS011;1438;50.922;6.704;2023-04-25T04:55:36;15.10;;;7.70;;
2860;SDS011;1438;50.922;6.704;2023-04-25T04:58:03;19.27;;;8.60;;
2860;SDS011;1438;50.922;6.704;2023-04-25T05:00:29;17.08;;;7.20;;
2860;SDS011;1438;50.922;6.704;2023-04-25T05:02:58;17.90;;;7.25;;
2860;SDS011;1438;50.922;6.704;2023-04-25T05:05:24;13.93;;;7.22;;
2860;SDS011;1438;50.922;6.704;2023-04-25T05:07:50;18.42;;;7.85;;
2860;SDS011;1438;50.922;6.704;2023-04-25T05:10:19;28.60;;;8.40;;
2860;SDS011;1438;50.922;6.704;2023-04-25T05:12:45;19.80;;;6.95;;
2860;SDS011;1438;50.922;6.704;2023-04-25T05:15:11;15.52;;;7.20;;
2860;SDS011;1438;50.922;6.704;2023-04-25T05:17:37;13.30;;;6.53;;
2860;SDS011;1438;50.922;6.704;2023-04-25T05:20:04;18.00;;;7.43;;
2860;SDS011;1438;50.922;6.704;2023-04-25T05:22:31;12.43;;;7.18;;
2860;SDS011;1438;50.922;6.704;2023-04-25T05:24:57;25.35;;;7.47;;
2860;SDS011;1438;50.922;6.704;2023-04-25T05:27:23;19.50;;;7.30;;
2860;SDS011;1438;50.922;6.704;2023-04-25T05:29:49;26.67;;;7.90;;
2860;SDS011;1438;50.922;6.704;2023-04-25T05:32:16;20.73;;;8.07;;
2860;SDS011;1438;50.922;6.704;2023-04-25T05:34:42;22.48;;;6.85;;
2860;SDS011;1438;50.922;6.704;2023-04-25T05:37:08;15.98;;;6.25;;
2860;SDS011;1438;50.922;6.704;2023-04-25T05:39:34;14.80;;;6.07;;
2860;SDS011;1438;50.922;6.704;2023-04-25T05:42:01;16.65;;;6.07;;
2860;SDS011;1438;50.922;6.704;2023-04-25T05:44:27;15.32;;;6.65;;
2860;SDS011;1438;50.922;6.704;2023-04-25T05:46:53;20.17;;;7.88;;
2860;SDS011;1438;50.922;6.704;2023-04-25T05:49:20;24.35;;;7.53;;
2860;SDS011;1438;50.922;6.704;2023-04-25T05:51:46;15.93;;;5.43;;
2860;SDS011;1438;50.922;6.704;2023-04-25T05:54:12;15.75;;;6.47;;
2860;SDS011;1438;50.922;6.704;2023-04-25T05:56:38;15.97;;;6.90;;
2860;SDS011;1438;50.922;6.704;2023-04-25T05:59:04;15.40;;;6.95;;
2860;SDS011;1438;50.922;6.704;2023-04-25T06:01:30;17.95;;;6.20;;
2860;SDS011;1438;50.922;6.704;2023-04-25T06:03:57;14.37;;;6.90;;
2860;SDS011;1438;50.922;6.704;2023-04-25T06:06:23;20.77;;;6.15;;
2860;SDS011;1438;50.922;6.704;2023-04-25T06:08:49;16.33;;;6.93;;
2860;SDS011;1438;50.922;6.704;2023-04-25T06:11:15;23.55;;;6.22;;
2860;SDS011;1438;50.922;6.704;2023-04-25T06:13:41;18.58;;;7.03;;
2860;SDS011;1438;50.922;6.704;2023-04-25T06:16:07;15.82;;;6.20;;
2860;SDS011;1438;50.922;6.704;2023-04-25T06:18:33;23.00;;;6.70;;
2860;SDS011;1438;50.922;6.704;2023-04-25T06:21:00;14.60;;;7.40;;
2860;SDS011;1438;50.922;6.704;2023-04-25T06:23:26;17.85;;;5.60;;
2860;SDS011;1438;50.922;6.704;2023-04-25T06:25:52;22.60;;;5.63;;
2860;SDS011;1438;50.922;6.704;2023-04-25T06:28:18;12.87;;;5.50;;
2860;SDS011;1438;50.922;6.704;2023-04-25T06:30:44;17.85;;;6.18;;
2860;SDS011;1438;50.922;6.704;2023-04-25T06:33:10;15.50;;;5.80;;
2860;SDS011;1438;50.922;6.704;2023-04-25T06:35:36;11.37;;;4.60;;
2860;SDS011;1438;50.922;6.704;2023-04-25T06:38:02;10.97;;;4.60;;
2860;SDS011;1438;50.922;6.704;2023-04-25T06:40:28;16.08;;;5.13;;
2860;SDS011;1438;50.922;6.704;2023-04-25T06:42:54;13.48;;;4.57;;
2860;SDS011;1438;50.922;6.704;2023-04-25T06:45:20;12.00;;;5.07;;
2860;SDS011;1438;50.922;6.704;2023-04-25T06:47:46;17.33;;;5.93;;
2860;SDS011;1438;50.922;6.704;2023-04-25T06:50:12;8.83;;;5.73;;
2860;SDS011;1438;50.922;6.704;2023-04-25T06:52:38;17.87;;;4.53;;
2860;SDS011;1438;50.922;6.704;2023-04-25T06:55:04;16.92;;;5.85;;
2860;SDS011;1438;50.922;6.704;2023-04-25T06:57:30;32.63;;;6.25;;
2860;SDS011;1438;50.922;6.704;2023-04-25T06:59:56;13.80;;;5.40;;
2860;SDS011;1438;50.922;6.704;2023-04-25T07:02:22;13.63;;;4.70;;
2860;SDS011;1438;50.922;6.704;2023-04-25T07:04:48;13.20;;;4.75;;
2860;SDS011;1438;50.922;6.704;2023-04-25T07:07:14;15.80;;;4.15;;
2860;SDS011;1438;50.922;6.704;2023-04-25T07:09:42;14.45;;;3.90;;
2860;SDS011;1438;50.922;6.704;2023-04-25T07:12:07;14.30;;;5.60;;
2860;SDS011;1438;50.922;6.704;2023-04-25T07:14:33;20.53;;;4.40;;
2860;SDS011;1438;50.922;6.704;2023-04-25T07:16:59;13.15;;;5.05;;
2860;SDS011;1438;50.922;6.704;2023-04-25T07:19:25;12.75;;;3.95;;
2860;SDS011;1438;50.922;6.704;2023-04-25T07:21:54;11.90;;;3.47;;
2860;SDS011;1438;50.922;6.704;2023-04-25T07:24:20;16.77;;;4.32;;
2860;SDS011;1438;50.922;6.704;2023-04-25T07:26:46;8.95;;;3.45;;
2860;SDS011;1438;50.922;6.704;2023-04-25T07:29:12;10.83;;;3.27;;
2860;SDS011;1438;50.922;6.704;2023-04-25T07:31:38;9.07;;;3.58;;
2860;SDS011;1438;50.922;6.704;2023-04-25T07:34:04;14.88;;;4.03;;
2860;SDS011;1438;50.922;6.704;2023-04-25T07:36:31;8.80;;;3.25;;
2860;SDS011;1438;50.922;6.704;2023-04-25T07:38:56;11.60;;;2.90;;
2860;SDS011;1438;50.922;6.704;2023-04-25T07:41:22;11.10;;;3.63;;
2860;SDS011;1438;50.922;6.704;2023-04-25T07:43:49;7.47;;;3.03;;
2860;SDS011;1438;50.922;6.704;2023-04-25T07:46:15;7.43;;;3.20;;
2860;SDS011;1438;50.922;6.704;2023-04-25T07:48:41;14.80;;;4.10;;
2860;SDS011;1438;50.922;6.704;2023-04-25T07:51:07;13.00;;;3.67;;
2860;SDS011;1438;50.922;6.704;2023-04-25T07:53:32;9.53;;;3.23;;
2860;SDS011;1438;50.922;6.704;2023-04-25T07:55:59;9.52;;;3.30;;
2860;SDS011;1438;50.922;6.704;2023-04-25T07:58:25;13.40;;;4.05;;
2860;SDS011;1438;50.922;6.704;2023-04-25T08:00:51;10.90;;;4.63;;
2860;SDS011;1438;50.922;6.704;2023-04-25T08:03:17;12.70;;;4.00;;
2860;SDS011;1438;50.922;6.704;2023-04-25T08:05:43;6.40;;;2.73;;
2860;SDS011;1438;50.922;6.704;2023-04-25T08:08:10;7.85;;;3.22;;
2860;SDS011;1438;50.922;6.704;2023-04-25T08:10:36;19.57;;;3.63;;
2860;SDS011;1438;50.922;6.704;2023-04-25T08:13:02;12.20;;;4.30;;
2860;SDS011;1438;50.922;6.704;2023-04-25T08:15:28;6.10;;;2.53;;
2860;SDS011;1438;50.922;6.704;2023-04-25T08:17:54;4.25;;;2.90;;
2860;SDS011;1438;50.922;6.704;2023-04-25T08:20:20;7.80;;;2.80;;
2860;SDS011;1438;50.922;6.704;2023-04-25T08:22:46;6.38;;;2.40;;
2860;SDS011;1438;50.922;6.704;2023-04-25T08:25:13;10.90;;;2.47;;
2860;SDS011;1438;50.922;6.704;2023-04-25T08:27:39;17.00;;;3.90;;
2860;SDS011;1438;50.922;6.704;2023-04-25T08:30:06;10.27;;;3.38;;
2860;SDS011;1438;50.922;6.704;2023-04-25T08:32:33;7.28;;;2.90;;
2860;SDS011;1438;50.922;6.704;2023-04-25T08:34:59;13.82;;;3.60;;
2860;SDS011;1438;50.922;6.704;2023-04-25T08:37:25;10.10;;;3.67;;
2860;SDS011;1438;50.922;6.704;2023-04-25T08:39:51;9.98;;;3.35;;
2860;SDS011;1438;50.922;6.704;2023-04-25T08:42:18;8.55;;;2.50;;
2860;SDS011;1438;50.922;6.704;2023-04-25T08:44:45;6.13;;;1.92;;
2860;SDS011;1438;50.922;6.704;2023-04-25T08:47:11;8.20;;;3.45;;
2860;SDS011;1438;50.922;6.704;2023-04-25T08:49:37;13.30;;;3.33;;
2860;SDS011;1438;50.922;6.704;2023-04-25T08:52:06;11.13;;;3.08;;
2860;SDS011;1438;50.922;6.704;2023-04-25T08:54:35;9.02;;;2.95;;
2860;SDS011;1438;50.922;6.704;2023-04-25T08:57:02;9.10;;;2.50;;
2860;SDS011;1438;50.922;6.704;2023-04-25T08:59:29;7.75;;;2.13;;
2860;SDS011;1438;50.922;6.704;2023-04-25T09:01:56;5.55;;;1.83;;
2860;SDS011;1438;50.922;6.704;2023-04-25T09:04:22;6.63;;;2.65;;
2860;SDS011;1438;50.922;6.704;2023-04-25T09:06:48;6.37;;;2.50;;
2860;SDS011;1438;50.922;6.704;2023-04-25T09:09:14;8.57;;;2.25;;
2860;SDS011;1438;50.922;6.704;2023-04-25T09:11:40;10.73;;;1.92;;
2860;SDS011;1438;50.922;6.704;2023-04-25T09:14:10;5.45;;;2.17;;
2860;SDS011;1438;50.922;6.704;2023-04-25T09:16:46;8.30;;;2.10;;
2860;SDS011;1438;50.922;6.704;2023-04-25T09:19:23;9.73;;;2.53;;
2860;SDS011;1438;50.922;6.704;2023-04-25T09:21:50;10.13;;;2.53;;
2860;SDS011;1438;50.922;6.704;2023-04-25T09:24:18;5.30;;;2.25;;
2860;SDS011;1438;50.922;6.704;2023-04-25T09:26:45;7.57;;;2.40;;
2860;SDS011;1438;50.922;6.704;2023-04-25T09:29:11;9.10;;;2.33;;
2860;SDS011;1438;50.922;6.704;2023-04-25T09:31:37;4.65;;;1.80;;
2860;SDS011;1438;50.922;6.704;2023-04-25T09:34:03;10.07;;;2.70;;
2860;SDS011;1438;50.922;6.704;2023-04-25T09:36:29;17.10;;;3.37;;
2860;SDS011;1438;50.922;6.704;2023-04-25T09:38:55;8.52;;;2.53;;
2860;SDS011;1438;50.922;6.704;2023-04-25T09:41:24;6.10;;;2.50;;
2860;SDS011;1438;50.922;6.704;2023-04-25T09:43:50;11.05;;;2.67;;
2860;SDS011;1438;50.922;6.704;2023-04-25T09:46:16;6.72;;;2.47;;
2860;SDS011;1438;50.922;6.704;2023-04-25T09:48:52;10.35;;;2.65;;
2860;SDS011;1438;50.922;6.704;2023-04-25T09:51:18;7.90;;;2.35;;
2860;SDS011;1438;50.922;6.704;2023-04-25T09:53:45;8.73;;;3.20;;
2860;SDS011;1438;50.922;6.704;2023-04-25T09:56:11;7.93;;;3.00;;
2860;SDS011;1438;50.922;6.704;2023-04-25T09:58:38;6.40;;;2.58;;
2860;SDS011;1438;50.922;6.704;2023-04-25T10:01:09;7.82;;;2.17;;
2860;SDS011;1438;50.922;6.704;2023-04-25T10:03:39;5.65;;;2.45;;
2860;SDS011;1438;50.922;6.704;2023-04-25T10:06:09;7.53;;;2.90;;
2860;SDS011;1438;50.922;6.704;2023-04-25T10:08:38;6.63;;;2.63;;
2860;SDS011;1438;50.922;6.704;2023-04-25T10:11:06;9.32;;;2.38;;
2860;SDS011;1438;50.922;6.704;2023-04-25T10:13:33;10.73;;;5.90;;
2860;SDS011;1438;50.922;6.704;2023-04-25T10:16:00;6.13;;;2.25;;
2860;SDS011;1438;50.922;6.704;2023-04-25T10:18:26;10.23;;;2.65;;
2860;SDS011;1438;50.922;6.704;2023-04-25T10:20:56;10.85;;;3.55;;
2860;SDS011;1438;50.922;6.704;2023-04-25T10:23:23;6.93;;;2.80;;
2860;SDS011;1438;50.922;6.704;2023-04-25T10:25:50;6.67;;;2.50;;
2860;SDS011;1438;50.922;6.704;2023-04-25T10:28:17;7.20;;;2.30;;
2860;SDS011;1438;50.922;6.704;2023-04-25T10:31:02;6.07;;;1.93;;
2860;SDS011;1438;50.922;6.704;2023-04-25T10:33:29;9.40;;;2.20;;
2860;SDS011;1438;50.922;6.704;2023-04-25T10:35:57;7.43;;;2.40;;
2860;SDS011;1438;50.922;6.704;2023-04-25T10:38:23;5.30;;;1.97;;
2860;SDS011;1438;50.922;6.704;2023-04-25T10:41:07;7.63;;;2.43;;
2860;SDS011;1438;50.922;6.704;2023-04-25T10:43:37;8.03;;;2.30;;
2860;SDS011;1438;50.922;6.704;2023-04-25T10:46:21;7.90;;;1.97;;
2860;SDS011;1438;50.922;6.704;2023-04-25T10:48:52;7.60;;;2.37;;
2860;SDS011;1438;50.922;6.704;2023-04-25T10:51:25;4.80;;;2.40;;
2860;SDS011;1438;50.922;6.704;2023-04-25T10:56:21;4.47;;;2.35;;
2860;SDS011;1438;50.922;6.704;2023-04-25T10:58:47;4.65;;;2.45;;
2860;SDS011;1438;50.922;6.704;2023-04-25T11:01:14;5.88;;;2.15;;
2860;SDS011;1438;50.922;6.704;2023-04-25T11:03:41;3.83;;;2.08;;
2860;SDS011;1438;50.922;6.704;2023-04-25T11:06:10;4.75;;;1.60;;
2860;SDS011;1438;50.922;6.704;2023-04-25T11:08:47;7.22;;;2.55;;
2860;SDS011;1438;50.922;6.704;2023-04-25T11:11:14;6.28;;;2.38;;
2860;SDS011;1438;50.922;6.704;2023-04-25T11:13:40;7.72;;;2.10;;
2860;SDS011;1438;50.922;6.704;2023-04-25T11:16:09;5.18;;;2.58;;
2860;SDS011;1438;50.922;6.704;2023-04-25T11:18:35;8.63;;;2.20;;
2860;SDS011;1438;50.922;6.704;2023-04-25T11:21:03;5.40;;;2.08;;
2860;SDS011;1438;50.922;6.704;2023-04-25T11:23:29;5.70;;;2.40;;
2860;SDS011;1438;50.922;6.704;2023-04-25T11:25:55;6.63;;;2.20;;
2860;SDS011;1438;50.922;6.704;2023-04-25T11:28:22;9.73;;;2.40;;
2860;SDS011;1438;50.922;6.704;2023-04-25T11:30:51;7.13;;;2.30;;
2860;SDS011;1438;50.922;6.704;2023-04-25T11:33:18;4.23;;;1.90;;
2860;SDS011;1438;50.922;6.704;2023-04-25T11:35:48;10.40;;;2.47;;
2860;SDS011;1438;50.922;6.704;2023-04-25T11:38:14;9.37;;;2.20;;
2860;SDS011;1438;50.922;6.704;2023-04-25T11:40:40;8.10;;;2.03;;
2860;SDS011;1438;50.922;6.704;2023-04-25T11:43:06;9.10;;;2.47;;
2860;SDS011;1438;50.922;6.704;2023-04-25T11:45:32;3.57;;;1.80;;
2860;SDS011;1438;50.922;6.704;2023-04-25T11:47:58;5.90;;;1.90;;
2860;SDS011;1438;50.922;6.704;2023-04-25T11:50:25;7.47;;;2.30;;
2860;SDS011;1438;50.922;6.704;2023-04-25T11:52:55;5.80;;;2.03;;
2860;SDS011;1438;50.922;6.704;2023-04-25T11:55:21;10.30;;;2.50;;
2860;SDS011;1438;50.922;6.704;2023-04-25T11:57:48;5.70;;;2.00;;
2860;SDS011;1438;50.922;6.704;2023-04-25T12:00:15;5.00;;;2.20;;
2860;SDS011;1438;50.922;6.704;2023-04-25T12:02:42;5.17;;;1.50;;
2860;SDS011;1438;50.922;6.704;2023-04-25T12:05:09;5.30;;;2.03;;
2860;SDS011;1438;50.922;6.704;2023-04-25T12:07:35;6.70;;;1.90;;
2860;SDS011;1438;50.922;6.704;2023-04-25T12:10:07;7.37;;;1.63;;
2860;SDS011;1438;50.922;6.704;2023-04-25T12:12:34;4.93;;;2.00;;
2860;SDS011;1438;50.922;6.704;2023-04-25T12:15:13;5.23;;;1.80;;
2860;SDS011;1438;50.922;6.704;2023-04-25T12:17:46;6.77;;;1.60;;
2860;SDS011;1438;50.922;6.704;2023-04-25T12:20:13;7.93;;;2.13;;
2860;SDS011;1438;50.922;6.704;2023-04-25T12:22:43;10.10;;;2.70;;
2860;SDS011;1438;50.922;6.704;2023-04-25T12:25:10;7.07;;;1.80;;
2860;SDS011;1438;50.922;6.704;2023-04-25T12:27:37;4.17;;;1.80;;
2860;SDS011;1438;50.922;6.704;2023-04-25T12:30:07;7.73;;;2.43;;
2860;SDS011;1438;50.922;6.704;2023-04-25T12:32:33;6.10;;;2.40;;
2860;SDS011;1438;50.922;6.704;2023-04-25T12:34:59;5.40;;;2.00;;
2860;SDS011;1438;50.922;6.704;2023-04-25T12:37:25;6.60;;;2.73;;
2860;SDS011;1438;50.922;6.704;2023-04-25T12:39:51;4.20;;;1.83;;
2860;SDS011;1438;50.922;6.704;2023-04-25T12:42:17;3.27;;;2.03;;
2860;SDS011;1438;50.922;6.704;2023-04-25T12:44:43;7.73;;;2.40;;
2860;SDS011;1438;50.922;6.704;2023-04-25T12:47:09;6.87;;;2.30;;
2860;SDS011;1438;50.922;6.704;2023-04-25T12:49:35;9.80;;;2.40;;
2860;SDS011;1438;50.922;6.704;2023-04-25T12:52:01;9.93;;;2.87;;
2860;SDS011;1438;50.922;6.704;2023-04-25T12:54:27;5.57;;;2.20;;
2860;SDS011;1438;50.922;6.704;2023-04-25T12:56:53;8.70;;;2.40;;
2860;SDS011;1438;50.922;6.704;2023-04-25T12:59:20;7.60;;;2.53;;
2860;SDS011;1438;50.922;6.704;2023-04-25T13:01:46;6.35;;;2.28;;
2860;SDS011;1438;50.922;6.704;2023-04-25T13:04:12;5.72;;;2.20;;
2860;SDS011;1438;50.922;6.704;2023-04-25T13:06:38;4.80;;;2.03;;
2860;SDS011;1438;50.922;6.704;2023-04-25T13:09:04;6.15;;;2.08;;
2860;SDS011;1438;50.922;6.704;2023-04-25T13:11:31;7.30;;;2.05;;
2860;SDS011;1438;50.922;6.704;2023-04-25T13:13:57;5.07;;;2.30;;
2860;SDS011;1438;50.922;6.704;2023-04-25T13:16:23;3.05;;;1.55;;
2860;SDS011;1438;50.922;6.704;2023-04-25T13:18:49;10.00;;;2.20;;
2860;SDS011;1438;50.922;6.704;2023-04-25T13:21:15;6.07;;;2.73;;
2860;SDS011;1438;50.922;6.704;2023-04-25T13:23:41;3.65;;;1.70;;
2860;SDS011;1438;50.922;6.704;2023-04-25T13:26:09;6.60;;;2.40;;
2860;SDS011;1438;50.922;6.704;2023-04-25T13:28:35;3.47;;;1.80;;
2860;SDS011;1438;50.922;6.704;2023-04-25T13:31:01;6.20;;;2.00;;
2860;SDS011;1438;50.922;6.704;2023-04-25T13:33:27;5.80;;;2.13;;
2860;SDS011;1438;50.922;6.704;2023-04-25T13:35:53;3.70;;;2.23;;
2860;SDS011;1438;50.922;6.704;2023-04-25T13:38:21;4.30;;;1.50;;
2860;SDS011;1438;50.922;6.704;2023-04-25T13:40:47;2.27;;;1.50;;
2860;SDS011;1438;50.922;6.704;2023-04-25T13:43:13;6.67;;;1.73;;
2860;SDS011;1438;50.922;6.704;2023-04-25T13:45:39;3.17;;;1.50;;
2860;SDS011;1438;50.922;6.704;2023-04-25T13:48:06;2.90;;;1.50;;
2860;SDS011;1438;50.922;6.704;2023-04-25T13:50:32;5.37;;;1.77;;
2860;SDS011;1438;50.922;6.704;2023-04-25T13:52:58;6.13;;;1.53;;
2860;SDS011;1438;50.922;6.704;2023-04-25T13:55:24;5.33;;;1.30;;
2860;SDS011;1438;50.922;6.704;2023-04-25T13:57:50;3.30;;;1.40;;
2860;SDS011;1438;50.922;6.704;2023-04-25T14:00:16;3.90;;;1.30;;
2860;SDS011;1438;50.922;6.704;2023-04-25T14:02:42;3.87;;;1.60;;
2860;SDS011;1438;50.922;6.704;2023-04-25T14:05:08;2.73;;;1.43;;
2860;SDS011;1438;50.922;6.704;2023-04-25T14:07:34;8.50;;;1.43;;
2860;SDS011;1438;50.922;6.704;2023-04-25T14:10:01;3.83;;;1.87;;
2860;SDS011;1438;50.922;6.704;2023-04-25T14:12:27;3.20;;;1.30;;
2860;SDS011;1438;50.922;6.704;2023-04-25T14:14:53;2.17;;;1.30;;
2860;SDS011;1438;50.922;6.704;2023-04-25T14:17:19;2.60;;;1.53;;
2860;SDS011;1438;50.922;6.704;2023-04-25T14:19:45;3.83;;;1.27;;
2860;SDS011;1438;50.922;6.704;2023-04-25T14:22:13;1.70;;;1.10;;
2860;SDS011;1438;50.922;6.704;2023-04-25T14:24:39;3.20;;;1.37;;
2860;SDS011;1438;50.922;6.704;2023-04-25T14:27:05;7.33;;;2.20;;
2860;SDS011;1438;50.922;6.704;2023-04-25T14:29:31;2.47;;;1.50;;
2860;SDS011;1438;50.922;6.704;2023-04-25T14:31:57;2.50;;;1.33;;
2860;SDS011;1438;50.922;6.704;2023-04-25T14:34:24;5.67;;;1.40;;
2860;SDS011;1438;50.922;6.704;2023-04-25T14:36:51;3.87;;;1.43;;
2860;SDS011;1438;50.922;6.704;2023-04-25T14:39:17;5.43;;;1.87;;
2860;SDS011;1438;50.922;6.704;2023-04-25T14:41:43;3.83;;;1.80;;
2860;SDS011;1438;50.922;6.704;2023-04-25T14:44:09;4.30;;;1.83;;
2860;SDS011;1438;50.922;6.704;2023-04-25T14:46:35;5.50;;;2.03;;
2860;SDS011;1438;50.922;6.704;2023-04-25T14:49:02;3.30;;;1.70;;
2860;SDS011;1438;50.922;6.704;2023-04-25T14:51:28;5.13;;;1.40;;
2860;SDS011;1438;50.922;6.704;2023-04-25T14:53:54;2.97;;;1.70;;
2860;SDS011;1438;50.922;6.704;2023-04-25T14:56:20;1.63;;;1.20;;
2860;SDS011;1438;50.922;6.704;2023-04-25T14:58:46;4.30;;;1.83;;
2860;SDS011;1438;50.922;6.704;2023-04-25T15:01:12;3.90;;;1.97;;
2860;SDS011;1438;50.922;6.704;2023-04-25T15:03:39;3.97;;;1.50;;
2860;SDS011;1438;50.922;6.704;2023-04-25T15:06:05;3.92;;;1.20;;